createdAt,value
2018-05-11T00:02:02.537Z,101781.95
2018-05-11T00:04:32.489Z,101780.30
2018-05-11T00:09:48.127Z,101769.66
2018-05-11T00:12:15.681Z,101768.52
2018-05-11T00:14:43.162Z,101763.03
2018-05-11T00:17:10.647Z,101760.94
2018-05-11T00:19:38.520Z,101756.25
2018-05-11T00:30:04.106Z,101752.67
2018-05-11T00:32:31.594Z,101745.39
2018-05-11T00:34:59.101Z,101741.63
2018-05-11T00:37:28.982Z,101724.80
2018-05-11T00:47:53.392Z,101717.19
2018-05-11T00:50:20.888Z,101711.63
2018-05-11T00:52:48.358Z,101706.06
2018-05-11T00:58:05.205Z,101703.98
2018-05-11T01:03:09.561Z,101695.45
2018-05-11T01:05:37.067Z,101686.37
2018-05-11T01:08:04.640Z,101683.41
2018-05-11T01:10:32.138Z,101676.92
2018-05-11T01:13:05.369Z,101668.30
2018-05-11T01:18:12.051Z,101671.02
2018-05-11T01:23:14.614Z,101649.84
2018-05-11T01:25:42.130Z,101641.16
2018-05-11T01:28:09.685Z,101645.12
2018-05-11T01:33:13.267Z,101643.50
2018-05-11T01:40:47.044Z,101645.25
2018-05-11T01:43:14.576Z,101637.89
2018-05-11T01:45:42.055Z,101631.91
2018-05-11T01:48:13.403Z,101618.08
2018-05-11T01:55:54.737Z,101613.34
2018-05-11T01:58:22.348Z,101619.40
2018-05-11T02:00:49.838Z,101619.41
2018-05-11T02:03:17.328Z,101608.21
2018-05-11T02:08:24.541Z,101613.08
2018-05-11T02:13:28.723Z,101592.31
2018-05-11T02:15:56.221Z,101593.61
2018-05-11T02:18:23.686Z,101588.41
2018-05-11T02:20:51.187Z,101575.36
2018-05-11T02:23:21.974Z,101567.60
2018-05-11T02:26:00.685Z,101572.37
2018-05-11T02:31:05.242Z,101558.05
2018-05-11T02:33:32.719Z,101561.52
2018-05-11T02:36:00.229Z,101554.59
2018-05-11T02:38:27.796Z,101553.73
2018-05-11T02:41:01.252Z,101545.50
2018-05-11T02:48:54.826Z,101516.56
2018-05-11T02:51:22.318Z,101521.77
2018-05-11T02:53:49.840Z,101512.30
2018-05-11T02:56:17.347Z,101511.44
2018-05-11T02:58:49.986Z,101508.85
2018-05-11T03:01:19.911Z,101517.58
2018-05-11T03:06:21.626Z,101510.25
2018-05-11T03:08:49.214Z,101504.23
2018-05-11T03:11:16.636Z,101505.55
2018-05-11T03:13:44.250Z,101505.17
2018-05-11T03:16:16.707Z,101504.33
2018-05-11T03:23:51.303Z,101507.01
2018-05-11T03:26:18.806Z,101497.92
2018-05-11T03:28:46.299Z,101497.91
2018-05-11T03:31:13.786Z,101499.64
2018-05-11T03:38:54.026Z,101483.52
2018-05-11T03:41:21.554Z,101475.30
2018-05-11T03:43:49.148Z,101467.48
2018-05-11T03:46:16.650Z,101473.53
2018-05-11T03:48:44.161Z,101460.91
2018-05-11T03:59:04.046Z,101438.80
2018-05-11T04:01:43.431Z,101448.83
2018-05-11T04:04:22.550Z,101447.09
2018-05-11T04:07:04.062Z,101431.05
2018-05-11T04:09:37.739Z,101428.89
2018-05-11T04:17:13.263Z,101415.03
2018-05-11T04:19:40.739Z,101408.52
2018-05-11T04:22:08.233Z,101406.73
2018-05-11T04:24:38.150Z,101401.50
2018-05-11T04:32:17.021Z,101389.25
2018-05-11T04:34:44.526Z,101380.52
2018-05-11T04:37:12.035Z,101378.27
2018-05-11T04:39:39.546Z,101367.78
2018-05-11T04:42:12.113Z,101372.94
2018-05-11T04:49:45.570Z,101350.97
2018-05-11T04:52:13.071Z,101338.29
2018-05-11T04:54:40.546Z,101343.78
2018-05-11T04:57:08.038Z,101333.27
2018-05-11T04:59:38.211Z,101337.92
2018-05-11T05:04:48.168Z,101340.30
2018-05-11T05:07:15.670Z,101328.87
2018-05-11T05:09:43.176Z,101335.23
2018-05-11T05:12:10.650Z,101336.44
2018-05-11T05:14:38.170Z,101344.58
2018-05-11T05:17:09.404Z,101321.48
2018-05-11T05:19:41.725Z,101310.56
2018-05-11T05:22:13.072Z,101326.52
2018-05-11T05:24:45.646Z,101313.83
2018-05-11T05:27:13.181Z,101315.95
2018-05-11T05:29:40.661Z,101308.06
2018-05-11T05:32:08.173Z,101302.75
2018-05-11T05:37:20.761Z,101307.25
2018-05-11T05:42:25.598Z,101291.39
2018-05-11T05:44:53.118Z,101294.34
2018-05-11T05:47:20.603Z,101299.84
2018-05-11T05:49:48.101Z,101291.93
2018-05-11T05:52:20.999Z,101301.30
2018-05-11T05:54:52.060Z,101297.26
2018-05-11T05:59:56.161Z,101317.77
2018-05-11T06:02:23.741Z,101304.13
2018-05-11T06:04:51.247Z,101309.14
2018-05-11T06:07:18.783Z,101300.73
2018-05-11T06:09:48.139Z,101300.59
2018-05-11T06:12:21.902Z,101298.73
2018-05-11T06:14:53.940Z,101291.64
2018-05-11T06:17:21.494Z,101294.53
2018-05-11T06:19:49.023Z,101296.99
2018-05-11T06:22:16.515Z,101284.28
2018-05-11T06:24:44.079Z,101283.66
2018-05-11T06:27:17.595Z,101281.33
2018-05-11T06:35:13.578Z,101275.44
2018-05-11T06:37:41.098Z,101270.84
2018-05-11T06:40:08.594Z,101260.63
2018-05-11T06:53:13.512Z,101269.52
2018-05-11T06:55:41.046Z,101263.94
2018-05-11T06:58:08.566Z,101267.93
2018-05-11T07:08:33.195Z,101268.50
2018-05-11T07:11:00.713Z,101266.34
2018-05-11T07:13:28.214Z,101263.87
2018-05-11T07:15:55.733Z,101258.94
2018-05-11T07:27:33.527Z,101255.83
2018-05-11T07:30:01.041Z,101261.79
2018-05-11T07:32:28.524Z,101265.53
2018-05-11T07:43:09.230Z,101267.14
2018-05-11T07:45:37.604Z,101263.64
2018-05-11T07:48:05.151Z,101269.20
2018-05-11T07:50:32.768Z,101259.23
2018-05-11T07:53:03.708Z,101259.58
2018-05-11T08:05:07.165Z,101250.92
2018-05-11T08:38:04.724Z,101218.11
2018-05-11T08:40:32.206Z,101208.55
2018-05-11T08:43:05.852Z,101206.93
2018-05-11T08:45:37.260Z,101210.48
2018-05-11T08:48:12.282Z,101211.95
2018-05-11T08:53:13.450Z,101211.62
2018-05-11T08:55:40.949Z,101218.56
2018-05-11T08:58:08.475Z,101217.72
2018-05-11T09:00:41.861Z,101220.73
2018-05-11T09:05:42.355Z,101209.93
2018-05-11T09:08:17.222Z,101204.78
2018-05-11T09:10:44.749Z,101207.50
2018-05-11T09:13:12.258Z,101213.19
2018-05-11T09:15:42.274Z,101212.56
2018-05-11T09:20:44.745Z,101188.55
2018-05-11T09:28:21.374Z,101200.23
2018-05-11T09:30:49.498Z,101196.75
2018-05-11T09:33:18.238Z,101200.91
2018-05-11T09:35:48.871Z,101202.79
2018-05-11T09:43:28.345Z,101209.99
2018-05-11T09:45:55.827Z,101197.23
2018-05-11T09:48:23.324Z,101208.19
2018-05-11T09:50:50.824Z,101200.50
2018-05-11T09:53:20.796Z,101203.97
2018-05-11T09:58:25.900Z,101188.55
2018-05-11T10:00:56.700Z,101182.95
2018-05-11T10:03:24.124Z,101186.03
2018-05-11T10:05:51.626Z,101202.69
2018-05-11T10:08:19.122Z,101190.95
2018-05-11T10:10:48.437Z,101195.42
2018-05-11T10:13:17.771Z,101204.66
2018-05-11T10:20:51.290Z,101189.26
2018-05-11T10:23:18.729Z,101187.67
2018-05-11T10:28:21.872Z,101177.72
2018-05-11T10:30:49.900Z,101174.98
2018-05-11T10:33:20.260Z,101171.41
2018-05-11T10:35:47.759Z,101179.31
2018-05-11T10:38:15.241Z,101169.64
2018-05-11T10:40:42.738Z,101157.84
2018-05-11T10:43:10.254Z,101166.94
2018-05-11T10:45:37.853Z,101166.37
2018-05-11T10:48:05.774Z,101172.31
2018-05-11T10:50:34.337Z,101170.92
2018-05-11T10:53:01.891Z,101176.44
2018-05-11T10:55:29.399Z,101182.91
2018-05-11T10:57:56.894Z,101167.95
2018-05-11T11:00:24.405Z,101168.61
2018-05-11T11:02:57.044Z,101168.52
2018-05-11T11:05:29.200Z,101165.98
2018-05-11T11:07:57.747Z,101147.56
2018-05-11T11:10:26.385Z,101133.39
2018-05-11T11:12:56.786Z,101136.17
2018-05-11T11:15:24.270Z,101136.33
2018-05-11T11:17:51.866Z,101140.16
2018-05-11T11:20:21.095Z,101143.59
2018-05-11T11:22:54.332Z,101127.48
2018-05-11T11:25:21.870Z,101137.14
2018-05-11T11:27:49.845Z,101122.14
2018-05-11T11:30:17.343Z,101121.72
2018-05-11T11:32:44.818Z,101121.53
2018-05-11T11:35:12.417Z,101126.44
2018-05-11T11:37:42.314Z,101120.09
2018-05-11T11:40:09.810Z,101114.92
2018-05-11T11:42:38.295Z,101105.69
2018-05-11T11:45:06.234Z,101096.99
2018-05-11T11:47:33.842Z,101086.83
2018-05-11T11:50:01.236Z,101076.94
2018-05-11T11:52:28.762Z,101072.88
2018-05-11T11:55:00.583Z,101083.00
2018-05-11T11:57:30.199Z,101101.98
2018-05-11T11:59:58.200Z,101097.00
2018-05-11T12:02:25.804Z,101097.03
2018-05-11T12:04:53.321Z,101086.92
2018-05-11T12:07:20.838Z,101091.34
2018-05-11T12:09:48.355Z,101083.20
2018-05-11T12:12:20.535Z,101088.19
2018-05-11T12:14:49.304Z,101085.82
2018-05-11T12:17:18.353Z,101100.25
2018-05-11T12:19:45.878Z,101095.91
2018-05-11T12:22:13.402Z,101089.65
2018-05-11T12:24:40.898Z,101090.72
2018-05-11T12:27:08.415Z,101100.95
2018-05-11T12:29:38.346Z,101098.51
2018-05-11T12:32:05.886Z,101089.00
2018-05-11T12:34:34.434Z,101091.02
2018-05-11T12:37:09.441Z,101079.28
2018-05-11T12:39:36.918Z,101079.05
2018-05-11T12:42:04.401Z,101083.52
2018-05-11T12:44:31.904Z,101097.67
2018-05-11T12:47:00.626Z,101082.00
2018-05-11T12:52:04.546Z,101074.00
2018-05-11T12:54:37.288Z,101067.02
2018-05-11T12:57:05.855Z,101089.86
2018-05-11T12:59:33.408Z,101104.73
2018-05-11T13:02:00.907Z,101103.29
2018-05-11T13:04:29.734Z,101106.84
2018-05-11T13:06:58.442Z,101108.62
2018-05-11T13:09:25.965Z,101109.19
2018-05-11T13:11:58.384Z,101115.67
2018-05-11T13:14:25.854Z,101111.80
2018-05-11T13:16:54.330Z,101095.83
2018-05-11T13:19:21.814Z,101101.57
2018-05-11T13:21:50.275Z,101106.91
2018-05-11T13:24:20.345Z,101096.92
2018-05-11T13:26:50.343Z,101094.97
2018-05-11T13:29:17.854Z,101093.31
2018-05-11T13:31:45.341Z,101084.70
2018-05-11T13:34:12.841Z,101087.85
2018-05-11T13:36:40.363Z,101081.66
2018-05-11T13:39:10.307Z,101076.73
2018-05-11T13:41:38.090Z,101077.73
2018-05-11T13:44:06.331Z,101073.33
2018-05-11T13:46:33.843Z,101054.99
2018-05-11T13:49:01.342Z,101053.26
2018-05-11T13:51:28.826Z,101062.25
2018-05-11T13:53:56.328Z,101063.88
2018-05-11T14:05:32.460Z,101065.80
2018-05-11T14:08:01.063Z,101064.77
2018-05-11T14:10:28.850Z,101063.03
2018-05-11T14:22:05.724Z,101079.85
2018-05-11T14:24:33.206Z,101078.02
2018-05-11T14:27:00.771Z,101071.89
2018-05-11T14:37:33.269Z,101062.68
2018-05-11T14:40:01.983Z,101056.23
2018-05-11T14:42:29.481Z,101047.80
2018-05-11T14:44:57.028Z,101053.74
2018-05-11T14:47:26.307Z,101043.13
2018-05-11T14:49:56.867Z,101038.45
2018-05-11T14:55:12.332Z,101033.86
2018-05-11T14:57:39.857Z,101036.58
2018-05-11T15:00:07.367Z,101030.72
2018-05-11T15:02:36.003Z,101036.67
2018-05-11T15:05:03.730Z,101036.02
2018-05-11T15:07:37.337Z,101018.36
2018-05-11T15:10:05.030Z,101020.75
2018-05-11T15:12:32.727Z,101018.25
2018-05-11T15:15:00.381Z,101015.94
2018-05-11T15:17:28.942Z,101025.12
2018-05-11T15:19:56.947Z,101023.66
2018-05-11T15:22:25.556Z,101022.75
2018-05-11T15:24:54.484Z,101026.75
2018-05-11T15:27:22.170Z,101026.80
2018-05-11T15:29:49.718Z,101026.93
2018-05-11T15:32:17.393Z,101027.97
2018-05-11T15:34:44.992Z,101025.55
2018-05-11T15:37:12.562Z,101038.06
2018-05-11T15:42:17.964Z,101028.86
2018-05-11T15:44:46.323Z,101027.19
2018-05-11T15:47:13.887Z,101030.69
2018-05-11T15:49:41.487Z,101030.72
2018-05-11T15:52:09.075Z,101032.83
2018-05-11T15:54:36.863Z,101033.56
2018-05-11T15:57:06.430Z,101026.48
2018-05-11T15:59:35.409Z,101036.77
2018-05-11T16:02:03.879Z,101035.34
2018-05-11T16:04:31.424Z,101031.72
2018-05-11T16:06:58.992Z,101030.25
2018-05-11T16:09:26.544Z,101038.41
2018-05-11T16:11:54.207Z,101038.58
2018-05-11T16:14:22.971Z,101033.44
2018-05-11T16:16:54.137Z,101034.88
2018-05-11T16:19:22.613Z,101030.21
2018-05-11T16:21:50.703Z,101027.30
2018-05-11T16:24:18.251Z,101023.51
2018-05-11T16:26:45.803Z,101023.67
2018-05-11T16:29:13.676Z,101026.84
2018-05-11T16:31:44.558Z,101029.63
2018-05-11T16:34:16.453Z,101041.96
2018-05-11T16:36:44.955Z,101079.60
2018-05-11T16:39:12.483Z,101074.81
2018-05-11T16:41:40.050Z,101083.12
2018-05-11T16:44:07.550Z,101080.39
2018-05-11T16:46:35.187Z,101080.98
2018-05-11T16:49:22.921Z,101088.89
2018-05-11T16:55:18.985Z,101107.66
2018-05-11T16:57:46.484Z,101102.95
2018-05-11T17:00:14.026Z,101107.16
2018-05-11T17:02:41.618Z,101107.52
2018-05-11T17:05:09.283Z,101108.58
2018-05-11T17:07:38.906Z,101113.19
2018-05-11T17:10:06.687Z,101117.88
2018-05-11T17:12:34.557Z,101114.55
2018-05-11T17:15:02.096Z,101119.86
2018-05-11T17:17:29.655Z,101127.95
2018-05-11T17:19:57.233Z,101131.56
2018-05-11T17:22:26.436Z,101134.04
2018-05-11T17:24:55.802Z,101140.75
2018-05-11T17:27:25.056Z,101134.50
2018-05-11T17:30:05.176Z,101145.98
2018-05-11T17:32:32.729Z,101154.92
2018-05-11T17:35:00.300Z,101156.02
2018-05-11T17:37:27.920Z,101157.35
2018-05-11T17:40:05.657Z,101163.19
2018-05-11T17:42:37.174Z,101163.46
